sensor_id;sensor_type;location;lat;lon;timestamp;P1;durP1;ratioP1;P2;durP2;ratioP2
61385;SDS011;47256;18.904;-99.054;2022-10-19T00:25:20;13.13;;;6.97;;
61385;SDS011;47256;18.904;-99.054;2022-10-19T00:27:48;11.40;;;7.38;;
61385;SDS011;47256;18.904;-99.054;2022-10-19T00:30:16;10.45;;;7.72;;
61385;SDS011;47256;18.904;-99.054;2022-10-19T00:32:44;14.07;;;7.65;;
61385;SDS011;47256;18.904;-99.054;2022-10-19T00:35:11;9.98;;;7.35;;
61385;SDS011;47256;18.904;-99.054;2022-10-19T00:37:43;10.63;;;7.90;;
61385;SDS011;47256;18.904;-99.054;2022-10-19T00:40:10;9.25;;;7.18;;
61385;SDS011;47256;18.904;-99.054;2022-10-19T00:42:42;14.95;;;8.23;;
61385;SDS011;47256;18.904;-99.054;2022-10-19T00:45:14;13.52;;;9.35;;
61385;SDS011;47256;18.904;-99.054;2022-10-19T00:47:43;13.27;;;8.38;;
61385;SDS011;47256;18.904;-99.054;2022-10-19T00:50:13;11.35;;;8.68;;
61385;SDS011;47256;18.904;-99.054;2022-10-19T00:52:47;12.15;;;8.07;;
61385;SDS011;47256;18.904;-99.054;2022-10-19T00:55:14;16.92;;;8.90;;
61385;SDS011;47256;18.904;-99.054;2022-10-19T00:57:41;15.57;;;9.88;;
61385;SDS011;47256;18.904;-99.054;2022-10-19T01:00:08;12.50;;;8.63;;
61385;SDS011;47256;18.904;-99.054;2022-10-19T01:02:40;13.00;;;8.70;;
61385;SDS011;47256;18.904;-99.054;2022-10-19T01:05:07;10.40;;;8.65;;
61385;SDS011;47256;18.904;-99.054;2022-10-19T01:07:36;12.00;;;9.05;;
61385;SDS011;47256;18.904;-99.054;2022-10-19T01:10:04;9.65;;;8.25;;
61385;SDS011;47256;18.904;-99.054;2022-10-19T01:15:20;14.93;;;9.27;;
61385;SDS011;47256;18.904;-99.054;2022-10-19T01:34:24;13.27;;;9.55;;
61385;SDS011;47256;18.904;-99.054;2022-10-19T01:37:12;12.45;;;9.07;;
61385;SDS011;47256;18.904;-99.054;2022-10-19T01:40:08;14.38;;;10.38;;
61385;SDS011;47256;18.904;-99.054;2022-10-19T01:42:58;11.20;;;9.50;;
61385;SDS011;47256;18.904;-99.054;2022-10-19T01:48:12;11.43;;;9.18;;
61385;SDS011;47256;18.904;-99.054;2022-10-19T01:50:47;13.45;;;10.02;;
61385;SDS011;47256;18.904;-99.054;2022-10-19T01:53:20;14.68;;;10.70;;
61385;SDS011;47256;18.904;-99.054;2022-10-19T01:55:50;15.68;;;10.38;;
61385;SDS011;47256;18.904;-99.054;2022-10-19T01:58:25;14.23;;;10.27;;
61385;SDS011;47256;18.904;-99.054;2022-10-19T02:00:56;15.30;;;11.60;;
61385;SDS011;47256;18.904;-99.054;2022-10-19T02:05:41;14.93;;;10.93;;
61385;SDS011;47256;18.904;-99.054;2022-10-19T02:08:15;14.55;;;11.18;;
61385;SDS011;47256;18.904;-99.054;2022-10-19T02:11:07;13.75;;;11.50;;
61385;SDS011;47256;18.904;-99.054;2022-10-19T02:13:35;16.33;;;11.77;;
61385;SDS011;47256;18.904;-99.054;2022-10-19T02:16:05;15.38;;;12.43;;
61385;SDS011;47256;18.904;-99.054;2022-10-19T02:18:44;14.82;;;12.57;;
61385;SDS011;47256;18.904;-99.054;2022-10-19T02:21:15;17.80;;;12.68;;
61385;SDS011;47256;18.904;-99.054;2022-10-19T02:23:44;18.65;;;12.57;;
61385;SDS011;47256;18.904;-99.054;2022-10-19T02:26:12;16.67;;;12.55;;
61385;SDS011;47256;18.904;-99.054;2022-10-19T02:28:40;15.50;;;12.43;;
61385;SDS011;47256;18.904;-99.054;2022-10-19T02:31:08;12.82;;;11.02;;
61385;SDS011;47256;18.904;-99.054;2022-10-19T02:33:35;13.35;;;11.25;;
61385;SDS011;47256;18.904;-99.054;2022-10-19T02:36:05;14.07;;;11.32;;
61385;SDS011;47256;18.904;-99.054;2022-10-19T02:38:34;15.75;;;12.20;;
61385;SDS011;47256;18.904;-99.054;2022-10-19T02:41:06;25.27;;;12.40;;
61385;SDS011;47256;18.904;-99.054;2022-10-19T02:43:50;16.05;;;12.73;;
61385;SDS011;47256;18.904;-99.054;2022-10-19T02:46:37;14.35;;;11.95;;
61385;SDS011;47256;18.904;-99.054;2022-10-19T02:49:09;16.02;;;12.45;;
61385;SDS011;47256;18.904;-99.054;2022-10-19T02:51:39;15.98;;;13.50;;
61385;SDS011;47256;18.904;-99.054;2022-10-19T02:54:29;19.85;;;13.48;;
61385;SDS011;47256;18.904;-99.054;2022-10-19T02:56:57;15.57;;;12.60;;
61385;SDS011;47256;18.904;-99.054;2022-10-19T03:06:11;22.92;;;14.30;;
61385;SDS011;47256;18.904;-99.054;2022-10-19T03:08:41;19.98;;;14.73;;
61385;SDS011;47256;18.904;-99.054;2022-10-19T03:11:08;17.08;;;15.20;;
61385;SDS011;47256;18.904;-99.054;2022-10-19T03:13:35;21.05;;;13.30;;
61385;SDS011;47256;18.904;-99.054;2022-10-19T03:16:06;17.17;;;14.23;;
61385;SDS011;47256;18.904;-99.054;2022-10-19T03:18:40;29.95;;;22.70;;
61385;SDS011;47256;18.904;-99.054;2022-10-19T03:21:08;21.52;;;17.15;;
61385;SDS011;47256;18.904;-99.054;2022-10-19T03:23:38;20.83;;;15.18;;
61385;SDS011;47256;18.904;-99.054;2022-10-19T03:26:06;17.10;;;14.15;;
61385;SDS011;47256;18.904;-99.054;2022-10-19T03:28:37;17.02;;;14.27;;
61385;SDS011;47256;18.904;-99.054;2022-10-19T03:31:04;20.90;;;13.90;;
61385;SDS011;47256;18.904;-99.054;2022-10-19T03:33:32;18.75;;;13.40;;
61385;SDS011;47256;18.904;-99.054;2022-10-19T03:39:02;15.85;;;12.52;;
61385;SDS011;47256;18.904;-99.054;2022-10-19T03:41:32;16.50;;;12.93;;
61385;SDS011;47256;18.904;-99.054;2022-10-19T03:44:01;20.10;;;12.60;;
61385;SDS011;47256;18.904;-99.054;2022-10-19T03:46:29;17.50;;;12.73;;
61385;SDS011;47256;18.904;-99.054;2022-10-19T03:48:57;17.25;;;12.57;;
61385;SDS011;47256;18.904;-99.054;2022-10-19T03:51:28;16.50;;;13.20;;
61385;SDS011;47256;18.904;-99.054;2022-10-19T03:54:01;16.63;;;13.52;;
61385;SDS011;47256;18.904;-99.054;2022-10-19T03:56:32;17.48;;;13.85;;
61385;SDS011;47256;18.904;-99.054;2022-10-19T03:59:05;14.82;;;12.18;;
61385;SDS011;47256;18.904;-99.054;2022-10-19T04:01:34;21.15;;;13.52;;
61385;SDS011;47256;18.904;-99.054;2022-10-19T04:04:04;18.60;;;14.48;;
61385;SDS011;47256;18.904;-99.054;2022-10-19T04:06:36;17.63;;;14.32;;
61385;SDS011;47256;18.904;-99.054;2022-10-19T04:09:07;19.85;;;14.35;;
61385;SDS011;47256;18.904;-99.054;2022-10-19T04:11:36;21.13;;;14.20;;
61385;SDS011;47256;18.904;-99.054;2022-10-19T04:14:04;19.02;;;14.57;;
61385;SDS011;47256;18.904;-99.054;2022-10-19T04:16:31;20.20;;;14.90;;
61385;SDS011;47256;18.904;-99.054;2022-10-19T04:18:58;18.95;;;14.30;;
61385;SDS011;47256;18.904;-99.054;2022-10-19T04:21:31;17.30;;;13.52;;
61385;SDS011;47256;18.904;-99.054;2022-10-19T04:24:04;19.98;;;14.95;;
61385;SDS011;47256;18.904;-99.054;2022-10-19T04:26:33;18.60;;;15.07;;
61385;SDS011;47256;18.904;-99.054;2022-10-19T04:29:02;25.48;;;15.50;;
61385;SDS011;47256;18.904;-99.054;2022-10-19T04:31:32;21.02;;;14.38;;
61385;SDS011;47256;18.904;-99.054;2022-10-19T04:33:59;18.05;;;14.82;;
61385;SDS011;47256;18.904;-99.054;2022-10-19T04:36:26;18.88;;;14.38;;
61385;SDS011;47256;18.904;-99.054;2022-10-19T04:38:54;20.45;;;15.30;;
61385;SDS011;47256;18.904;-99.054;2022-10-19T04:41:21;17.42;;;14.05;;
61385;SDS011;47256;18.904;-99.054;2022-10-19T04:43:58;18.45;;;14.68;;
61385;SDS011;47256;18.904;-99.054;2022-10-19T04:46:28;17.73;;;15.55;;
61385;SDS011;47256;18.904;-99.054;2022-10-19T04:48:56;18.00;;;14.20;;
61385;SDS011;47256;18.904;-99.054;2022-10-19T04:51:26;18.42;;;14.82;;
61385;SDS011;47256;18.904;-99.054;2022-10-19T04:53:53;19.98;;;14.80;;
61385;SDS011;47256;18.904;-99.054;2022-10-19T04:56:23;19.77;;;15.63;;
61385;SDS011;47256;18.904;-99.054;2022-10-19T04:58:53;17.40;;;14.40;;
61385;SDS011;47256;18.904;-99.054;2022-10-19T05:01:22;20.88;;;14.80;;
61385;SDS011;47256;18.904;-99.054;2022-10-19T05:03:53;22.45;;;15.02;;
61385;SDS011;47256;18.904;-99.054;2022-10-19T05:06:26;18.90;;;14.52;;
61385;SDS011;47256;18.904;-99.054;2022-10-19T05:08:58;16.65;;;14.90;;
61385;SDS011;47256;18.904;-99.054;2022-10-19T05:11:25;18.63;;;15.27;;
61385;SDS011;47256;18.904;-99.054;2022-10-19T05:13:54;23.63;;;15.50;;
61385;SDS011;47256;18.904;-99.054;2022-10-19T05:16:22;17.92;;;15.32;;
61385;SDS011;47256;18.904;-99.054;2022-10-19T05:18:52;18.02;;;15.32;;
61385;SDS011;47256;18.904;-99.054;2022-10-19T05:21:26;19.23;;;15.60;;
61385;SDS011;47256;18.904;-99.054;2022-10-19T05:23:54;20.42;;;15.02;;
61385;SDS011;47256;18.904;-99.054;2022-10-19T05:26:23;18.48;;;15.23;;
61385;SDS011;47256;18.904;-99.054;2022-10-19T05:28:59;24.00;;;14.82;;
61385;SDS011;47256;18.904;-99.054;2022-10-19T05:31:28;20.67;;;16.13;;
61385;SDS011;47256;18.904;-99.054;2022-10-19T05:33:57;18.52;;;16.35;;
61385;SDS011;47256;18.904;-99.054;2022-10-19T05:36:26;21.33;;;15.27;;
61385;SDS011;47256;18.904;-99.054;2022-10-19T05:39:07;20.20;;;16.88;;
61385;SDS011;47256;18.904;-99.054;2022-10-19T05:41:41;20.05;;;15.45;;
61385;SDS011;47256;18.904;-99.054;2022-10-19T05:44:12;23.17;;;16.83;;
61385;SDS011;47256;18.904;-99.054;2022-10-19T05:46:43;19.42;;;16.45;;
61385;SDS011;47256;18.904;-99.054;2022-10-19T05:49:11;19.40;;;16.08;;
61385;SDS011;47256;18.904;-99.054;2022-10-19T05:51:40;20.33;;;16.13;;
61385;SDS011;47256;18.904;-99.054;2022-10-19T05:54:11;22.40;;;18.23;;
61385;SDS011;47256;18.904;-99.054;2022-10-19T05:56:43;21.13;;;17.38;;
61385;SDS011;47256;18.904;-99.054;2022-10-19T05:59:15;21.25;;;17.20;;
61385;SDS011;47256;18.904;-99.054;2022-10-19T06:01:44;22.73;;;16.92;;
61385;SDS011;47256;18.904;-99.054;2022-10-19T06:04:12;22.83;;;16.30;;
61385;SDS011;47256;18.904;-99.054;2022-10-19T06:06:41;20.77;;;16.83;;
61385;SDS011;47256;18.904;-99.054;2022-10-19T06:09:08;26.83;;;16.27;;
61385;SDS011;47256;18.904;-99.054;2022-10-19T06:11:37;19.00;;;16.35;;
61385;SDS011;47256;18.904;-99.054;2022-10-19T06:14:06;21.42;;;15.13;;
61385;SDS011;47256;18.904;-99.054;2022-10-19T06:16:39;19.95;;;15.48;;
61385;SDS011;47256;18.904;-99.054;2022-10-19T06:19:06;20.88;;;15.95;;
61385;SDS011;47256;18.904;-99.054;2022-10-19T06:21:35;24.67;;;16.55;;
61385;SDS011;47256;18.904;-99.054;2022-10-19T06:24:03;20.98;;;15.30;;
61385;SDS011;47256;18.904;-99.054;2022-10-19T06:26:34;21.05;;;15.98;;
61385;SDS011;47256;18.904;-99.054;2022-10-19T06:29:01;19.15;;;15.05;;
61385;SDS011;47256;18.904;-99.054;2022-10-19T06:31:31;20.35;;;15.98;;
61385;SDS011;47256;18.904;-99.054;2022-10-19T06:33:59;20.83;;;16.05;;
61385;SDS011;47256;18.904;-99.054;2022-10-19T06:36:28;28.00;;;16.77;;
61385;SDS011;47256;18.904;-99.054;2022-10-19T06:38:56;27.30;;;16.50;;
61385;SDS011;47256;18.904;-99.054;2022-10-19T06:41:24;18.63;;;15.60;;
61385;SDS011;47256;18.904;-99.054;2022-10-19T06:43:53;23.58;;;15.85;;
61385;SDS011;47256;18.904;-99.054;2022-10-19T06:46:21;21.38;;;16.35;;
61385;SDS011;47256;18.904;-99.054;2022-10-19T06:48:54;21.25;;;16.33;;
61385;SDS011;47256;18.904;-99.054;2022-10-19T06:51:23;24.05;;;16.73;;
61385;SDS011;47256;18.904;-99.054;2022-10-19T06:53:51;23.45;;;16.40;;
61385;SDS011;47256;18.904;-99.054;2022-10-19T06:56:45;22.83;;;16.95;;
61385;SDS011;47256;18.904;-99.054;2022-10-19T06:59:13;22.45;;;18.20;;
61385;SDS011;47256;18.904;-99.054;2022-10-19T07:01:42;25.75;;;16.92;;
61385;SDS011;47256;18.904;-99.054;2022-10-19T07:04:09;39.08;;;19.63;;
61385;SDS011;47256;18.904;-99.054;2022-10-19T07:06:37;26.98;;;19.88;;
61385;SDS011;47256;18.904;-99.054;2022-10-19T07:09:05;26.27;;;20.67;;
61385;SDS011;47256;18.904;-99.054;2022-10-19T07:11:33;29.75;;;21.25;;
61385;SDS011;47256;18.904;-99.054;2022-10-19T07:13:59;29.05;;;20.92;;
61385;SDS011;47256;18.904;-99.054;2022-10-19T07:16:30;27.67;;;19.48;;
61385;SDS011;47256;18.904;-99.054;2022-10-19T07:18:57;26.92;;;21.02;;
61385;SDS011;47256;18.904;-99.054;2022-10-19T07:21:27;33.22;;;20.35;;
61385;SDS011;47256;18.904;-99.054;2022-10-19T07:23:54;34.40;;;21.30;;
61385;SDS011;47256;18.904;-99.054;2022-10-19T07:26:23;29.30;;;21.08;;
61385;SDS011;47256;18.904;-99.054;2022-10-19T07:28:55;26.70;;;19.80;;
61385;SDS011;47256;18.904;-99.054;2022-10-19T07:31:23;28.95;;;20.80;;
61385;SDS011;47256;18.904;-99.054;2022-10-19T07:33:52;25.75;;;19.73;;
61385;SDS011;47256;18.904;-99.054;2022-10-19T07:36:24;29.00;;;21.02;;
61385;SDS011;47256;18.904;-99.054;2022-10-19T07:38:52;28.45;;;21.08;;
61385;SDS011;47256;18.904;-99.054;2022-10-19T07:41:21;32.83;;;22.10;;
61385;SDS011;47256;18.904;-99.054;2022-10-19T07:43:48;36.15;;;20.55;;
61385;SDS011;47256;18.904;-99.054;2022-10-19T07:46:21;27.02;;;20.08;;
61385;SDS011;47256;18.904;-99.054;2022-10-19T07:48:50;28.13;;;19.95;;
61385;SDS011;47256;18.904;-99.054;2022-10-19T07:51:18;35.90;;;21.08;;
61385;SDS011;47256;18.904;-99.054;2022-10-19T07:53:47;27.75;;;20.27;;
61385;SDS011;47256;18.904;-99.054;2022-10-19T07:56:22;32.53;;;19.90;;
61385;SDS011;47256;18.904;-99.054;2022-10-19T07:58:58;23.58;;;18.70;;
61385;SDS011;47256;18.904;-99.054;2022-10-19T08:01:29;25.70;;;19.17;;
61385;SDS011;47256;18.904;-99.054;2022-10-19T08:04:06;24.30;;;18.08;;
61385;SDS011;47256;18.904;-99.054;2022-10-19T08:06:34;25.75;;;18.63;;
61385;SDS011;47256;18.904;-99.054;2022-10-19T08:09:04;26.05;;;19.02;;
61385;SDS011;47256;18.904;-99.054;2022-10-19T08:11:32;27.13;;;19.80;;
61385;SDS011;47256;18.904;-99.054;2022-10-19T08:14:01;26.00;;;18.63;;
61385;SDS011;47256;18.904;-99.054;2022-10-19T08:16:32;29.02;;;19.25;;
61385;SDS011;47256;18.904;-99.054;2022-10-19T08:19:04;28.13;;;19.48;;
61385;SDS011;47256;18.904;-99.054;2022-10-19T08:21:40;25.73;;;18.73;;
61385;SDS011;47256;18.904;-99.054;2022-10-19T08:24:09;24.13;;;18.02;;
61385;SDS011;47256;18.904;-99.054;2022-10-19T08:26:40;28.75;;;18.50;;
61385;SDS011;47256;18.904;-99.054;2022-10-19T08:31:40;27.13;;;19.23;;
61385;SDS011;47256;18.904;-99.054;2022-10-19T08:34:08;31.48;;;19.42;;
61385;SDS011;47256;18.904;-99.054;2022-10-19T08:36:37;30.90;;;20.27;;
61385;SDS011;47256;18.904;-99.054;2022-10-19T08:39:05;25.77;;;19.20;;
61385;SDS011;47256;18.904;-99.054;2022-10-19T08:47:32;32.05;;;19.83;;
61385;SDS011;47256;18.904;-99.054;2022-10-19T08:50:09;32.15;;;19.58;;
61385;SDS011;47256;18.904;-99.054;2022-10-19T08:52:49;34.80;;;20.48;;
61385;SDS011;47256;18.904;-99.054;2022-10-19T08:56:28;28.23;;;18.83;;
61385;SDS011;47256;18.904;-99.054;2022-10-19T09:09:57;28.10;;;19.40;;
61385;SDS011;47256;18.904;-99.054;2022-10-19T09:12:37;29.95;;;20.13;;
61385;SDS011;47256;18.904;-99.054;2022-10-19T09:15:11;32.13;;;21.25;;
61385;SDS011;47256;18.904;-99.054;2022-10-19T09:17:43;30.63;;;20.50;;
61385;SDS011;47256;18.904;-99.054;2022-10-19T09:20:18;29.92;;;20.15;;
61385;SDS011;47256;18.904;-99.054;2022-10-19T09:23:33;33.58;;;20.55;;
61385;SDS011;47256;18.904;-99.054;2022-10-19T09:26:16;30.75;;;20.52;;
61385;SDS011;47256;18.904;-99.054;2022-10-19T09:28:55;31.80;;;20.45;;
61385;SDS011;47256;18.904;-99.054;2022-10-19T09:31:31;30.08;;;20.40;;
61385;SDS011;47256;18.904;-99.054;2022-10-19T09:34:16;34.30;;;21.67;;
61385;SDS011;47256;18.904;-99.054;2022-10-19T09:36:53;32.20;;;21.95;;
61385;SDS011;47256;18.904;-99.054;2022-10-19T09:39:25;34.25;;;19.70;;
61385;SDS011;47256;18.904;-99.054;2022-10-19T09:41:55;33.60;;;19.70;;
61385;SDS011;47256;18.904;-99.054;2022-10-19T09:44:43;34.72;;;20.23;;
61385;SDS011;47256;18.904;-99.054;2022-10-19T09:47:31;30.65;;;20.92;;
61385;SDS011;47256;18.904;-99.054;2022-10-19T09:50:20;27.23;;;19.75;;
61385;SDS011;47256;18.904;-99.054;2022-10-19T09:52:55;28.33;;;19.55;;
61385;SDS011;47256;18.904;-99.054;2022-10-19T09:55:33;31.80;;;19.83;;
61385;SDS011;47256;18.904;-99.054;2022-10-19T10:00:48;26.83;;;19.63;;
61385;SDS011;47256;18.904;-99.054;2022-10-19T10:06:02;29.00;;;18.95;;
61385;SDS011;47256;18.904;-99.054;2022-10-19T10:08:36;25.35;;;18.33;;
61385;SDS011;47256;18.904;-99.054;2022-10-19T10:11:13;27.70;;;19.23;;
61385;SDS011;47256;18.904;-99.054;2022-10-19T10:13:56;29.35;;;20.27;;
61385;SDS011;47256;18.904;-99.054;2022-10-19T10:16:27;29.60;;;19.75;;
61385;SDS011;47256;18.904;-99.054;2022-10-19T10:18:59;34.85;;;19.85;;
61385;SDS011;47256;18.904;-99.054;2022-10-19T10:21:30;22.98;;;18.35;;
61385;SDS011;47256;18.904;-99.054;2022-10-19T10:24:05;24.35;;;17.60;;
61385;SDS011;47256;18.904;-99.054;2022-10-19T10:26:46;28.45;;;17.08;;
61385;SDS011;47256;18.904;-99.054;2022-10-19T10:31:58;22.50;;;16.35;;
61385;SDS011;47256;18.904;-99.054;2022-10-19T10:35:05;19.83;;;15.82;;
61385;SDS011;47256;18.904;-99.054;2022-10-19T10:40:54;70.97;;;17.60;;
61385;SDS011;47256;18.904;-99.054;2022-10-19T10:43:30;22.58;;;17.67;;
61385;SDS011;47256;18.904;-99.054;2022-10-19T10:46:00;33.72;;;17.95;;
61385;SDS011;47256;18.904;-99.054;2022-10-19T10:48:36;22.05;;;17.15;;
61385;SDS011;47256;18.904;-99.054;2022-10-19T10:51:18;28.80;;;19.52;;
61385;SDS011;47256;18.904;-99.054;2022-10-19T10:54:37;27.98;;;18.35;;
61385;SDS011;47256;18.904;-99.054;2022-10-19T10:59:53;25.08;;;19.55;;
61385;SDS011;47256;18.904;-99.054;2022-10-19T11:03:25;49.20;;;20.15;;
61385;SDS011;47256;18.904;-99.054;2022-10-19T11:05:45;31.05;;;19.15;;
61385;SDS011;47256;18.904;-99.054;2022-10-19T11:08:20;26.20;;;19.67;;
61385;SDS011;47256;18.904;-99.054;2022-10-19T11:16:51;37.60;;;20.50;;
61385;SDS011;47256;18.904;-99.054;2022-10-19T11:19:36;32.85;;;18.63;;
61385;SDS011;47256;18.904;-99.054;2022-10-19T11:22:13;29.05;;;19.05;;
61385;SDS011;47256;18.904;-99.054;2022-10-19T11:30:24;28.92;;;18.35;;
61385;SDS011;47256;18.904;-99.054;2022-10-19T11:32:55;22.02;;;17.73;;
61385;SDS011;47256;18.904;-99.054;2022-10-19T11:44:22;33.03;;;18.40;;
61385;SDS011;47256;18.904;-99.054;2022-10-19T11:55:54;27.13;;;18.13;;
61385;SDS011;47256;18.904;-99.054;2022-10-19T11:58:49;24.65;;;18.92;;
61385;SDS011;47256;18.904;-99.054;2022-10-19T12:14:33;23.92;;;18.85;;
61385;SDS011;47256;18.904;-99.054;2022-10-19T12:17:06;20.25;;;16.42;;
61385;SDS011;47256;18.904;-99.054;2022-10-19T12:19:40;23.33;;;17.45;;
61385;SDS011;47256;18.904;-99.054;2022-10-19T12:22:14;30.15;;;17.23;;
61385;SDS011;47256;18.904;-99.054;2022-10-19T12:24:45;22.08;;;16.33;;
61385;SDS011;47256;18.904;-99.054;2022-10-19T12:27:16;22.90;;;17.20;;
61385;SDS011;47256;18.904;-99.054;2022-10-19T12:30:22;27.10;;;18.13;;
61385;SDS011;47256;18.904;-99.054;2022-10-19T12:33:13;23.13;;;17.65;;
61385;SDS011;47256;18.904;-99.054;2022-10-19T12:47:34;16.42;;;13.35;;
61385;SDS011;47256;18.904;-99.054;2022-10-19T12:50:02;17.85;;;13.77;;
61385;SDS011;47256;18.904;-99.054;2022-10-19T12:57:47;15.55;;;12.45;;
61385;SDS011;47256;18.904;-99.054;2022-10-19T13:00:31;14.50;;;11.98;;
61385;SDS011;47256;18.904;-99.054;2022-10-19T13:05:39;18.08;;;13.15;;
61385;SDS011;47256;18.904;-99.054;2022-10-19T13:08:06;19.85;;;12.43;;
61385;SDS011;47256;18.904;-99.054;2022-10-19T13:10:34;20.83;;;13.20;;
61385;SDS011;47256;18.904;-99.054;2022-10-19T13:13:01;19.10;;;13.88;;
61385;SDS011;47256;18.904;-99.054;2022-10-19T13:21:41;19.52;;;14.57;;
61385;SDS011;47256;18.904;-99.054;2022-10-19T13:32:46;23.83;;;15.07;;
61385;SDS011;47256;18.904;-99.054;2022-10-19T13:38:18;25.85;;;13.48;;
61385;SDS011;47256;18.904;-99.054;2022-10-19T13:43:26;16.08;;;12.15;;
61385;SDS011;47256;18.904;-99.054;2022-10-19T13:46:11;16.58;;;11.77;;
61385;SDS011;47256;18.904;-99.054;2022-10-19T14:02:59;21.75;;;15.18;;
61385;SDS011;47256;18.904;-99.054;2022-10-19T14:11:01;20.35;;;15.70;;
61385;SDS011;47256;18.904;-99.054;2022-10-19T14:14:17;27.15;;;16.55;;
61385;SDS011;47256;18.904;-99.054;2022-10-19T14:16:55;25.17;;;18.48;;
61385;SDS011;47256;18.904;-99.054;2022-10-19T14:19:26;25.58;;;17.88;;
61385;SDS011;47256;18.904;-99.054;2022-10-19T14:21:58;27.55;;;19.48;;
61385;SDS011;47256;18.904;-99.054;2022-10-19T14:24:34;27.15;;;21.50;;
61385;SDS011;47256;18.904;-99.054;2022-10-19T14:27:03;32.70;;;21.38;;
61385;SDS011;47256;18.904;-99.054;2022-10-19T14:29:44;31.27;;;21.65;;
61385;SDS011;47256;18.904;-99.054;2022-10-19T14:32:22;34.13;;;22.42;;
61385;SDS011;47256;18.904;-99.054;2022-10-19T14:34:52;37.40;;;23.27;;
61385;SDS011;47256;18.904;-99.054;2022-10-19T14:37:22;34.30;;;23.77;;
61385;SDS011;47256;18.904;-99.054;2022-10-19T14:40:02;29.23;;;22.30;;
61385;SDS011;47256;18.904;-99.054;2022-10-19T14:42:52;41.08;;;24.90;;
61385;SDS011;47256;18.904;-99.054;2022-10-19T14:45:21;28.95;;;22.75;;
61385;SDS011;47256;18.904;-99.054;2022-10-19T14:48:06;31.48;;;21.05;;
61385;SDS011;47256;18.904;-99.054;2022-10-19T14:53:21;36.85;;;22.67;;
61385;SDS011;47256;18.904;-99.054;2022-10-19T14:58:49;30.35;;;20.85;;
61385;SDS011;47256;18.904;-99.054;2022-10-19T15:01:24;23.63;;;19.42;;
61385;SDS011;47256;18.904;-99.054;2022-10-19T15:03:52;31.35;;;21.48;;
61385;SDS011;47256;18.904;-99.054;2022-10-19T15:06:20;28.17;;;19.13;;
61385;SDS011;47256;18.904;-99.054;2022-10-19T15:09:13;25.70;;;17.77;;
61385;SDS011;47256;18.904;-99.054;2022-10-19T15:11:50;25.00;;;18.70;;
61385;SDS011;47256;18.904;-99.054;2022-10-19T15:14:23;27.15;;;16.17;;
61385;SDS011;47256;18.904;-99.054;2022-10-19T15:16:57;22.73;;;15.77;;
61385;SDS011;47256;18.904;-99.054;2022-10-19T15:24:34;22.38;;;17.80;;
61385;SDS011;47256;18.904;-99.054;2022-10-19T15:27:37;29.50;;;19.80;;
61385;SDS011;47256;18.904;-99.054;2022-10-19T15:32:50;33.03;;;22.30;;
61385;SDS011;47256;18.904;-99.054;2022-10-19T15:35:35;30.42;;;22.17;;
61385;SDS011;47256;18.904;-99.054;2022-10-19T15:40:45;31.70;;;21.67;;
61385;SDS011;47256;18.904;-99.054;2022-10-19T15:43:31;28.80;;;22.23;;
61385;SDS011;47256;18.904;-99.054;2022-10-19T15:51:37;32.63;;;22.50;;
61385;SDS011;47256;18.904;-99.054;2022-10-19T15:54:06;28.55;;;19.77;;
61385;SDS011;47256;18.904;-99.054;2022-10-19T15:56:36;31.10;;;20.55;;
61385;SDS011;47256;18.904;-99.054;2022-10-19T15:59:17;26.08;;;17.38;;
61385;SDS011;47256;18.904;-99.054;2022-10-19T16:01:47;24.27;;;16.70;;
61385;SDS011;47256;18.904;-99.054;2022-10-19T16:04:16;20.67;;;15.52;;
61385;SDS011;47256;18.904;-99.054;2022-10-19T16:06:44;21.90;;;15.18;;
61385;SDS011;47256;18.904;-99.054;2022-10-19T16:09:14;23.02;;;16.02;;
61385;SDS011;47256;18.904;-99.054;2022-10-19T16:11:43;19.27;;;14.10;;
61385;SDS011;47256;18.904;-99.054;2022-10-19T16:14:15;20.13;;;15.05;;
61385;SDS011;47256;18.904;-99.054;2022-10-19T16:16:47;18.98;;;15.00;;
61385;SDS011;47256;18.904;-99.054;2022-10-19T16:19:15;18.10;;;13.23;;
61385;SDS011;47256;18.904;-99.054;2022-10-19T16:21:42;18.00;;;11.93;;
61385;SDS011;47256;18.904;-99.054;2022-10-19T16:24:09;14.05;;;11.20;;
61385;SDS011;47256;18.904;-99.054;2022-10-19T16:36:54;10.75;;;8.20;;
61385;SDS011;47256;18.904;-99.054;2022-10-19T16:39:24;14.30;;;8.52;;
61385;SDS011;47256;18.904;-99.054;2022-10-19T16:41:53;10.73;;;8.30;;
61385;SDS011;47256;18.904;-99.054;2022-10-19T16:44:20;8.02;;;6.82;;
61385;SDS011;47256;18.904;-99.054;2022-10-19T16:46:47;15.48;;;6.72;;
61385;SDS011;47256;18.904;-99.054;2022-10-19T16:49:15;14.88;;;8.07;;
61385;SDS011;47256;18.904;-99.054;2022-10-19T16:51:42;11.73;;;6.55;;
61385;SDS011;47256;18.904;-99.054;2022-10-19T16:54:09;8.07;;;6.93;;
61385;SDS011;47256;18.904;-99.054;2022-10-19T16:56:41;6.72;;;6.03;;
61385;SDS011;47256;18.904;-99.054;2022-10-19T16:59:11;8.10;;;6.80;;
61385;SDS011;47256;18.904;-99.054;2022-10-19T17:01:40;11.18;;;7.10;;
61385;SDS011;47256;18.904;-99.054;2022-10-19T17:04:18;13.13;;;7.78;;
61385;SDS011;47256;18.904;-99.054;2022-10-19T17:06:47;11.10;;;7.13;;
61385;SDS011;47256;18.904;-99.054;2022-10-19T17:09:15;12.45;;;8.18;;
61385;SDS011;47256;18.904;-99.054;2022-10-19T17:11:42;14.60;;;7.07;;
61385;SDS011;47256;18.904;-99.054;2022-10-19T17:14:10;8.68;;;7.60;;
61385;SDS011;47256;18.904;-99.054;2022-10-19T17:16:40;14.85;;;7.65;;
61385;SDS011;47256;18.904;-99.054;2022-10-19T17:19:07;9.95;;;7.32;;
61385;SDS011;47256;18.904;-99.054;2022-10-19T17:21:37;8.55;;;7.47;;
61385;SDS011;47256;18.904;-99.054;2022-10-19T17:24:05;18.40;;;8.75;;
61385;SDS011;47256;18.904;-99.054;2022-10-19T17:26:38;17.70;;;8.23;;
61385;SDS011;47256;18.904;-99.054;2022-10-19T17:29:18;7.57;;;5.55;;
61385;SDS011;47256;18.904;-99.054;2022-10-19T17:31:50;10.98;;;6.18;;
61385;SDS011;47256;18.904;-99.054;2022-10-19T17:34:17;6.72;;;5.40;;
61385;SDS011;47256;18.904;-99.054;2022-10-19T17:36:46;7.25;;;6.28;;
61385;SDS011;47256;18.904;-99.054;2022-10-19T17:39:15;8.25;;;6.47;;
61385;SDS011;47256;18.904;-99.054;2022-10-19T17:41:45;8.52;;;6.47;;
61385;SDS011;47256;18.904;-99.054;2022-10-19T17:44:19;8.98;;;6.47;;
61385;SDS011;47256;18.904;-99.054;2022-10-19T17:46:46;12.75;;;6.90;;
61385;SDS011;47256;18.904;-99.054;2022-10-19T17:49:14;10.98;;;7.28;;
61385;SDS011;47256;18.904;-99.054;2022-10-19T17:51:42;10.45;;;7.72;;
61385;SDS011;47256;18.904;-99.054;2022-10-19T17:54:11;19.65;;;8.27;;
61385;SDS011;47256;18.904;-99.054;2022-10-19T17:56:42;10.02;;;7.72;;
61385;SDS011;47256;18.904;-99.054;2022-10-19T17:59:17;10.00;;;7.38;;
61385;SDS011;47256;18.904;-99.054;2022-10-19T18:01:45;10.27;;;8.57;;
61385;SDS011;47256;18.904;-99.054;2022-10-19T18:04:16;12.95;;;9.68;;
61385;SDS011;47256;18.904;-99.054;2022-10-19T18:06:43;9.88;;;8.38;;
61385;SDS011;47256;18.904;-99.054;2022-10-19T18:09:13;15.57;;;9.55;;
61385;SDS011;47256;18.904;-99.054;2022-10-19T18:11:43;15.85;;;9.13;;
61385;SDS011;47256;18.904;-99.054;2022-10-19T18:14:11;13.35;;;6.78;;
61385;SDS011;47256;18.904;-99.054;2022-10-19T18:16:42;11.95;;;8.95;;